Princeton, Canada
Current Conditions -  °F | °C
As of 10:00 AM on Thursday 30 Oct 2014 (Local Time) from CYDC Reporting Station
Haze Haze  
Wind Chill: 39°   Ceiling: 2500
Heat Index: 39°   Visibility: 2.5mi
Dew Point: 37°   Wind: 0mph
Humidity: 93%   Direction: NA
Pressure: 30.02"   Gusts: NA
Location:  49.46°N, 120.5°W
Report Text: CYDC 301700Z 00000KT 2 1/2SM BR SCT010 BKN025 OVC100 04/03 A3002 RMK FG2ST1SC4AC1 SLP181
Loading
Personal Weather Stations






























Interactive Weather Map
Tropical Storm Tracking
New forecast layout! Learn more

10-Day Weather Forecast

Advertisements
Track Severe Weather on mobile